Time;durP1;ratioP1;P1;durP2;ratioP2;P2;SDS_P1;SDS_P2;PMS_P1;PMS_P2;Temp;Humidity;BMP_temperature;BMP_pressure;BME280_temperature;BME280_humidity;BME280_pressure;Samples;Min_cycle;Max_cycle;Signal;HPM_P1;HPM_P2
2023/09/10 00:01:50;;;;;;;8.40;4.10;;;;;;;;;;5060993;28;20049;-74
2023/09/10 00:04:36;;;;;;;5.82;4.40;;;;;;;;;;5054162;28;20045;-75
2023/09/10 00:07:21;;;;;;;6.00;4.05;;;;;;;;;;5054123;28;20425;-75
2023/09/10 00:10:07;;;;;;;6.43;3.90;;;;;;;;;;5054408;28;20144;-74
2023/09/10 00:12:53;;;;;;;7.15;4.30;;;;;;;;;;5053619;28;20045;-75
2023/09/10 00:15:39;;;;;;;9.00;4.43;;;;;;;;;;5045809;28;20037;-74
2023/09/10 00:18:24;;;;;;;6.20;4.30;;;;;;;;;;5053878;28;20037;-74
2023/09/10 00:21:09;;;;;;;5.88;4.50;;;;;;;;;;5053774;28;20482;-74
2023/09/10 00:23:55;;;;;;;4.97;3.90;;;;;;;;;;5053721;28;20045;-74
2023/09/10 00:26:40;;;;;;;7.15;3.88;;;;;;;;;;5053742;28;20045;-74
2023/09/10 00:29:26;;;;;;;10.63;4.35;;;;;;;;;;5060270;28;20044;-74
2023/09/10 00:32:12;;;;;;;5.90;4.18;;;;;;;;;;5060740;28;20045;-74
2023/09/10 00:34:57;;;;;;;6.13;4.18;;;;;;;;;;5045604;28;20049;-74
2023/09/10 00:37:43;;;;;;;5.50;3.85;;;;;;;;;;5053881;28;20466;-74
2023/09/10 00:40:29;;;;;;;6.00;4.10;;;;;;;;;;5053617;28;20402;-73
2023/09/10 00:43:14;;;;;;;8.25;4.10;;;;;;;;;;5044926;28;20048;-74
2023/09/10 00:45:59;;;;;;;7.57;4.32;;;;;;;;;;5045176;28;20037;-74
2023/09/10 00:48:45;;;;;;;7.05;4.25;;;;;;;;;;5053723;28;20037;-74
2023/09/10 00:51:31;;;;;;;12.02;4.45;;;;;;;;;;5053688;28;20045;-73
2023/09/10 00:54:17;;;;;;;6.53;4.20;;;;;;;;;;5044597;28;20041;-74
2023/09/10 00:57:03;;;;;;;8.45;4.45;;;;;;;;;;5053620;28;20041;-74
2023/09/10 00:59:48;;;;;;;8.07;4.00;;;;;;;;;;5053654;28;20053;-74
2023/09/10 01:02:34;;;;;;;7.75;4.18;;;;;;;;;;5053856;28;20045;-73
2023/09/10 01:05:20;;;;;;;5.40;3.72;;;;;;;;;;5053382;28;20044;-73
2023/09/10 01:08:05;;;;;;;14.07;4.10;;;;;;;;;;5044784;28;20052;-73
2023/09/10 01:11:09;;;;;;;6.22;4.40;;;;;;;;;;5053000;28;20049;-74
2023/09/10 01:14:17;;;;;;;7.60;4.10;;;;;;;;;;5052950;28;20049;-73
2023/09/10 01:17:09;;;;;;;8.63;4.53;;;;;;;;;;5044892;28;20049;-75
2023/09/10 01:20:21;;;;;;;6.22;3.88;;;;;;;;;;5053424;28;20052;-75
2023/09/10 01:23:25;;;;;;;7.75;4.57;;;;;;;;;;5044799;28;20387;-74
2023/09/10 01:26:11;;;;;;;5.97;4.15;;;;;;;;;;5044835;28;20056;-74
2023/09/10 01:28:56;;;;;;;7.20;4.20;;;;;;;;;;5053182;28;20044;-74
2023/09/10 01:31:45;;;;;;;5.88;4.38;;;;;;;;;;5044781;28;20049;-74
2023/09/10 01:34:36;;;;;;;9.18;4.43;;;;;;;;;;5053308;28;20063;-75
2023/09/10 01:37:32;;;;;;;5.85;4.30;;;;;;;;;;5052901;28;20045;-75
2023/09/10 01:40:26;;;;;;;7.47;4.55;;;;;;;;;;5053012;28;20048;-74
2023/09/10 01:43:12;;;;;;;5.60;3.92;;;;;;;;;;5052847;28;20037;-73
2023/09/10 01:45:57;;;;;;;5.53;4.13;;;;;;;;;;5044562;28;20049;-74
2023/09/10 01:48:42;;;;;;;7.00;4.07;;;;;;;;;;5053226;28;20382;-73
2023/09/10 01:51:28;;;;;;;4.85;3.95;;;;;;;;;;5044235;28;20041;-73
2023/09/10 01:54:13;;;;;;;5.63;3.88;;;;;;;;;;5056040;28;20470;-74
2023/09/10 01:56:59;;;;;;;7.75;4.40;;;;;;;;;;5041663;28;20041;-74
2023/09/10 01:59:44;;;;;;;11.45;4.80;;;;;;;;;;5048347;28;20045;-74
2023/09/10 02:02:29;;;;;;;7.10;4.38;;;;;;;;;;5048334;28;20041;-74
2023/09/10 02:05:14;;;;;;;8.10;4.70;;;;;;;;;;5047806;28;20041;-74
2023/09/10 02:07:59;;;;;;;6.75;4.82;;;;;;;;;;5048010;28;20041;-74
2023/09/10 02:10:47;;;;;;;9.45;4.30;;;;;;;;;;5056102;28;20041;-74
2023/09/10 02:13:32;;;;;;;7.53;4.60;;;;;;;;;;5056085;28;20040;-74
2023/09/10 02:16:17;;;;;;;8.23;4.57;;;;;;;;;;5056157;28;20037;-74
2023/09/10 02:19:03;;;;;;;7.35;4.55;;;;;;;;;;5056033;28;20049;-74
2023/09/10 02:21:50;;;;;;;7.28;4.50;;;;;;;;;;5047926;28;20379;-74
2023/09/10 02:24:35;;;;;;;6.97;4.88;;;;;;;;;;5055895;28;20041;-74
2023/09/10 02:27:21;;;;;;;7.30;4.53;;;;;;;;;;5056222;28;20045;-74
2023/09/10 02:30:10;;;;;;;7.63;4.57;;;;;;;;;;5055790;28;20045;-74
2023/09/10 02:32:55;;;;;;;6.90;4.65;;;;;;;;;;5055802;28;20037;-74
2023/09/10 02:35:41;;;;;;;5.55;4.43;;;;;;;;;;5062529;28;20045;-74
2023/09/10 02:38:27;;;;;;;7.18;5.03;;;;;;;;;;5055911;28;20398;-74
2023/09/10 02:41:12;;;;;;;6.90;5.00;;;;;;;;;;5033796;28;20482;-74
2023/09/10 02:43:58;;;;;;;8.82;4.78;;;;;;;;;;5055601;28;20040;-74
2023/09/10 02:46:43;;;;;;;8.85;4.90;;;;;;;;;;5055518;28;20390;-74
2023/09/10 02:49:29;;;;;;;8.63;4.65;;;;;;;;;;5047150;28;20486;-74
2023/09/10 02:52:15;;;;;;;7.93;4.57;;;;;;;;;;5055331;28;20037;-74
2023/09/10 02:55:00;;;;;;;7.05;4.18;;;;;;;;;;5055530;28;20049;-74
2023/09/10 02:57:46;;;;;;;7.82;4.45;;;;;;;;;;5055624;28;20470;-74
2023/09/10 03:00:31;;;;;;;7.65;4.55;;;;;;;;;;5040426;28;20049;-74
2023/09/10 03:03:19;;;;;;;7.07;4.35;;;;;;;;;;5046972;28;20049;-75
2023/09/10 03:06:13;;;;;;;7.68;4.25;;;;;;;;;;5046363;28;20040;-75
2023/09/10 03:08:59;;;;;;;;;;;;;;;;;;5047660;28;20045;-74
2023/09/10 03:11:46;;;;;;;7.47;4.85;;;;;;;;;;5046506;28;19917;-74
2023/09/10 03:14:31;;;;;;;5.55;4.10;;;;;;;;;;5054381;28;20052;-73
2023/09/10 03:17:18;;;;;;;6.93;4.30;;;;;;;;;;5061676;28;20036;-73
2023/09/10 03:20:08;;;;;;;5.85;4.30;;;;;;;;;;5046623;28;20394;-74
2023/09/10 03:22:58;;;;;;;6.18;4.22;;;;;;;;;;5046517;28;20041;-73
2023/09/10 03:25:44;;;;;;;7.45;4.22;;;;;;;;;;5046814;28;20053;-75
2023/09/10 03:28:29;;;;;;;6.38;4.63;;;;;;;;;;5046447;28;20049;-75
2023/09/10 03:31:15;;;;;;;4.30;3.88;;;;;;;;;;5046048;28;20037;-74
2023/09/10 03:34:01;;;;;;;6.53;4.15;;;;;;;;;;5046449;28;20045;-74
2023/09/10 03:36:47;;;;;;;7.55;4.25;;;;;;;;;;5054868;28;20036;-74
2023/09/10 03:39:33;;;;;;;6.30;4.30;;;;;;;;;;5046302;28;20049;-75
2023/09/10 03:42:19;;;;;;;5.65;4.32;;;;;;;;;;5046301;28;20045;-74
2023/09/10 03:45:06;;;;;;;6.43;4.63;;;;;;;;;;5046432;28;20378;-74
2023/09/10 03:47:51;;;;;;;8.32;4.45;;;;;;;;;;5046473;28;20045;-74
2023/09/10 03:50:37;;;;;;;9.75;4.47;;;;;;;;;;5054447;28;20049;-73
2023/09/10 03:53:22;;;;;;;5.88;4.70;;;;;;;;;;5046045;28;20048;-78
2023/09/10 03:56:08;;;;;;;8.50;4.30;;;;;;;;;;5045984;28;20037;-74
2023/09/10 03:58:53;;;;;;;6.07;4.63;;;;;;;;;;5046118;28;20037;-74
2023/09/10 04:01:39;;;;;;;6.53;4.40;;;;;;;;;;5045395;28;20482;-73
2023/09/10 04:04:25;;;;;;;9.25;4.60;;;;;;;;;;5053950;28;20390;-74
2023/09/10 04:07:10;;;;;;;7.20;4.82;;;;;;;;;;5054027;28;20033;-74
2023/09/10 04:09:56;;;;;;;7.53;4.50;;;;;;;;;;5045800;28;20053;-74
2023/09/10 04:12:42;;;;;;;6.15;4.72;;;;;;;;;;5044055;28;20049;-74
2023/09/10 04:15:27;;;;;;;7.07;4.40;;;;;;;;;;5053903;28;20049;-73
2023/09/10 04:18:13;;;;;;;7.88;4.53;;;;;;;;;;5053224;28;20037;-74
2023/09/10 04:20:58;;;;;;;7.32;4.35;;;;;;;;;;5045777;28;20454;-74
2023/09/10 04:23:44;;;;;;;5.95;4.40;;;;;;;;;;5045361;28;20037;-74
2023/09/10 04:26:29;;;;;;;9.00;4.55;;;;;;;;;;5045374;28;20398;-74
2023/09/10 04:29:15;;;;;;;6.60;4.40;;;;;;;;;;5045394;28;20053;-74
2023/09/10 04:32:00;;;;;;;5.80;4.32;;;;;;;;;;5044950;28;20414;-74
2023/09/10 04:34:45;;;;;;;4.93;4.20;;;;;;;;;;5044694;28;20045;-74
2023/09/10 04:37:31;;;;;;;5.35;4.25;;;;;;;;;;5045106;28;20478;-73
2023/09/10 04:40:17;;;;;;;8.35;4.45;;;;;;;;;;5053389;28;20049;-74
2023/09/10 04:43:03;;;;;;;5.28;4.40;;;;;;;;;;5053342;28;20048;-73
2023/09/10 04:45:48;;;;;;;5.35;4.13;;;;;;;;;;5053427;28;20049;-74
2023/09/10 04:48:34;;;;;;;8.23;4.30;;;;;;;;;;5045299;28;20053;-74
2023/09/10 04:51:20;;;;;;;6.72;4.13;;;;;;;;;;5038504;28;20418;-73
2023/09/10 04:54:05;;;;;;;8.75;5.35;;;;;;;;;;5044989;28;20041;-74
2023/09/10 04:56:53;;;;;;;9.23;6.05;;;;;;;;;;5045010;28;20045;-75
2023/09/10 04:59:40;;;;;;;10.85;6.82;;;;;;;;;;5053338;28;20387;-74
2023/09/10 05:02:25;;;;;;;10.50;6.82;;;;;;;;;;5053450;28;20053;-74
2023/09/10 05:05:11;;;;;;;12.32;7.05;;;;;;;;;;5053167;28;20041;-75
2023/09/10 05:07:56;;;;;;;13.20;7.28;;;;;;;;;;5044920;28;20041;-74
2023/09/10 05:10:42;;;;;;;11.88;7.18;;;;;;;;;;5044331;28;20049;-75
2023/09/10 05:13:27;;;;;;;10.95;6.32;;;;;;;;;;5035093;28;20054;-75
2023/09/10 05:16:12;;;;;;;13.23;6.82;;;;;;;;;;5025290;28;20053;-75
2023/09/10 05:18:58;;;;;;;14.77;6.20;;;;;;;;;;5038788;28;20041;-75
2023/09/10 05:21:43;;;;;;;12.70;5.57;;;;;;;;;;5025785;28;20045;-75
2023/09/10 05:24:29;;;;;;;11.95;5.45;;;;;;;;;;5033867;28;20045;-75
2023/09/10 05:27:14;;;;;;;9.93;6.00;;;;;;;;;;5025011;28;20045;-75
2023/09/10 05:30:00;;;;;;;12.07;5.40;;;;;;;;;;5028619;28;20045;-75
2023/09/10 05:32:45;;;;;;;9.52;5.25;;;;;;;;;;5028745;28;20045;-75
2023/09/10 05:35:31;;;;;;;8.27;4.40;;;;;;;;;;5036983;28;20042;-75
2023/09/10 05:38:17;;;;;;;10.68;5.07;;;;;;;;;;5037263;28;20042;-75
2023/09/10 05:41:03;;;;;;;12.40;4.93;;;;;;;;;;5036925;28;20053;-75
2023/09/10 05:43:48;;;;;;;8.93;4.75;;;;;;;;;;5028729;28;20037;-74
2023/09/10 05:46:33;;;;;;;11.18;4.40;;;;;;;;;;5041867;28;20038;-75
2023/09/10 05:49:19;;;;;;;10.70;4.70;;;;;;;;;;5028382;28;20486;-74
2023/09/10 05:52:05;;;;;;;8.23;5.05;;;;;;;;;;5027967;28;20049;-74
2023/09/10 05:54:50;;;;;;;9.43;5.53;;;;;;;;;;5028155;28;20041;-73
2023/09/10 05:57:36;;;;;;;11.13;5.22;;;;;;;;;;5022014;28;20482;-73
2023/09/10 06:00:22;;;;;;;11.40;7.47;;;;;;;;;;5042268;28;20045;-74
2023/09/10 06:03:09;;;;;;;12.23;7.80;;;;;;;;;;5028198;28;20041;-75
2023/09/10 06:05:58;;;;;;;8.27;5.47;;;;;;;;;;5042332;28;20046;-75
2023/09/10 06:08:44;;;;;;;6.57;4.43;;;;;;;;;;5027928;28;20387;-76
2023/09/10 06:11:29;;;;;;;9.93;5.00;;;;;;;;;;5027440;28;20041;-73
2023/09/10 06:14:15;;;;;;;8.75;4.18;;;;;;;;;;5039000;28;20402;-75
2023/09/10 06:17:01;;;;;;;8.32;4.03;;;;;;;;;;5047305;28;20489;-75
2023/09/10 06:19:48;;;;;;;8.43;4.07;;;;;;;;;;5034024;28;20049;-75
2023/09/10 06:22:33;;;;;;;13.07;4.18;;;;;;;;;;5047700;28;20398;-75
2023/09/10 06:25:19;;;;;;;8.20;4.03;;;;;;;;;;5056200;28;20053;-74
2023/09/10 06:28:04;;;;;;;7.03;4.13;;;;;;;;;;5047420;28;20387;-75
2023/09/10 06:30:50;;;;;;;6.53;4.90;;;;;;;;;;5056156;28;20491;-74
2023/09/10 06:33:36;;;;;;;8.43;4.90;;;;;;;;;;5034190;28;20037;-74
2023/09/10 06:36:22;;;;;;;5.20;3.67;;;;;;;;;;5040752;28;20053;-75
2023/09/10 06:39:07;;;;;;;10.35;4.55;;;;;;;;;;5046568;28;20390;-74
2023/09/10 06:41:55;;;;;;;6.90;4.15;;;;;;;;;;5055669;28;20054;-73
2023/09/10 06:44:44;;;;;;;6.97;3.92;;;;;;;;;;5047732;28;20045;-73
2023/09/10 06:47:29;;;;;;;6.13;4.10;;;;;;;;;;5055259;28;20052;-74
2023/09/10 06:50:16;;;;;;;11.68;4.00;;;;;;;;;;5055591;28;20045;-74
2023/09/10 06:53:02;;;;;;;7.18;4.50;;;;;;;;;;5055501;28;20048;-74
2023/09/10 06:55:47;;;;;;;12.18;4.40;;;;;;;;;;5046850;28;20049;-74
2023/09/10 06:58:32;;;;;;;10.35;4.13;;;;;;;;;;5054675;28;20041;-75
2023/09/10 07:01:18;;;;;;;9.55;5.25;;;;;;;;;;5054761;28;20048;-74
2023/09/10 07:04:19;;;;;;;7.28;4.30;;;;;;;;;;5054927;28;20041;-75
2023/09/10 07:07:03;;;;;;;5.47;4.50;;;;;;;;;;5054766;28;20041;-74
2023/09/10 07:09:50;;;;;;;8.90;3.97;;;;;;;;;;5054775;28;20045;-75
2023/09/10 07:12:36;;;;;;;8.45;4.43;;;;;;;;;;5054279;28;20057;-76
2023/09/10 07:15:21;;;;;;;7.85;4.03;;;;;;;;;;5061254;28;20398;-74
2023/09/10 07:18:07;;;;;;;7.53;4.03;;;;;;;;;;5054509;28;20041;-75
2023/09/10 07:20:52;;;;;;;10.90;4.05;;;;;;;;;;5054076;28;20494;-75
2023/09/10 07:23:38;;;;;;;6.13;4.30;;;;;;;;;;5053529;28;20041;-75
2023/09/10 07:26:24;;;;;;;9.63;3.67;;;;;;;;;;5061636;28;20045;-76
2023/09/10 07:29:09;;;;;;;8.25;3.60;;;;;;;;;;5054136;28;20036;-76
2023/09/10 07:31:55;;;;;;;9.20;3.60;;;;;;;;;;5054304;28;20041;-76
2023/09/10 07:34:40;;;;;;;7.03;3.45;;;;;;;;;;5054758;28;20048;-76
2023/09/10 07:37:26;;;;;;;7.03;3.78;;;;;;;;;;5060665;28;20048;-76
2023/09/10 07:40:13;;;;;;;5.95;3.72;;;;;;;;;;5054008;28;20052;-75
2023/09/10 07:42:59;;;;;;;10.85;4.18;;;;;;;;;;5059628;28;20052;-76
2023/09/10 07:45:47;;;;;;;7.88;4.10;;;;;;;;;;5060721;28;20033;-74
2023/09/10 07:48:32;;;;;;;5.60;3.88;;;;;;;;;;5054426;28;20053;-75
2023/09/10 07:51:18;;;;;;;7.55;4.05;;;;;;;;;;5053936;28;20049;-76
2023/09/10 07:54:03;;;;;;;7.97;3.97;;;;;;;;;;5054260;28;20064;-77
2023/09/10 07:56:49;;;;;;;5.13;3.80;;;;;;;;;;5053581;28;20049;-74
2023/09/10 07:59:34;;;;;;;9.85;4.32;;;;;;;;;;5052378;28;20044;-76
2023/09/10 08:02:22;;;;;;;5.93;4.00;;;;;;;;;;5051834;28;20057;-75
2023/09/10 08:05:08;;;;;;;7.32;4.30;;;;;;;;;;5052479;28;20474;-75
2023/09/10 08:07:54;;;;;;;5.88;3.90;;;;;;;;;;5058902;28;20402;-76
2023/09/10 08:10:43;;;;;;;7.28;4.13;;;;;;;;;;5058632;28;20057;-75
2023/09/10 08:13:28;;;;;;;8.82;4.07;;;;;;;;;;5053395;28;20049;-75
2023/09/10 08:16:15;;;;;;;7.65;4.07;;;;;;;;;;5052847;28;20482;-76
2023/09/10 08:18:59;;;;;;;7.00;3.78;;;;;;;;;;5052550;28;20398;-74
2023/09/10 08:21:44;;;;;;;7.05;3.83;;;;;;;;;;5045132;28;20398;-76
2023/09/10 08:24:30;;;;;;;8.93;3.83;;;;;;;;;;5054048;28;20032;-76
2023/09/10 08:27:15;;;;;;;9.23;3.75;;;;;;;;;;5053691;28;20053;-76
2023/09/10 08:30:01;;;;;;;7.40;3.75;;;;;;;;;;5053526;28;20049;-76
2023/09/10 08:32:49;;;;;;;6.90;4.00;;;;;;;;;;5053095;28;20049;-75
2023/09/10 08:35:51;;;;;;;8.68;3.85;;;;;;;;;;5053425;28;20144;-76
2023/09/10 08:38:35;;;;;;;6.72;3.85;;;;;;;;;;5053596;28;20082;-75
2023/09/10 08:41:29;;;;;;;5.30;3.75;;;;;;;;;;5053195;28;20045;-76
2023/09/10 08:44:19;;;;;;;;;;;;;;;;;;5053912;28;20040;-76
2023/09/10 08:47:07;;;;;;;6.32;3.90;;;;;;;;;;5053120;28;19913;-76
2023/09/10 08:49:59;;;;;;;12.32;3.78;;;;;;;;;;5059853;28;20041;-75
2023/09/10 08:52:48;;;;;;;12.32;4.10;;;;;;;;;;5052555;28;20036;-75
2023/09/10 08:55:35;;;;;;;7.80;3.90;;;;;;;;;;5053635;28;20037;-75
2023/09/10 08:58:20;;;;;;;10.80;4.22;;;;;;;;;;5053056;28;20048;-75
2023/09/10 09:01:08;;;;;;;6.63;3.70;;;;;;;;;;5052877;28;20490;-75
2023/09/10 09:03:53;;;;;;;6.32;3.70;;;;;;;;;;5055974;28;20390;-75
2023/09/10 09:06:40;;;;;;;7.90;3.22;;;;;;;;;;5048714;28;20053;-75
2023/09/10 09:09:30;;;;;;;7.25;3.55;;;;;;;;;;5064047;28;20045;-75
2023/09/10 09:12:16;;;;;;;9.45;4.00;;;;;;;;;;5056792;28;20045;-75
2023/09/10 09:15:03;;;;;;;7.30;4.05;;;;;;;;;;5048915;28;20045;-77
2023/09/10 09:17:50;;;;;;;8.52;4.25;;;;;;;;;;5042472;28;20049;-74
2023/09/10 09:20:38;;;;;;;8.20;4.10;;;;;;;;;;5057191;28;20048;-74
2023/09/10 09:23:37;;;;;;;9.57;3.90;;;;;;;;;;5057156;28;20041;-75
2023/09/10 09:26:24;;;;;;;8.32;4.15;;;;;;;;;;5057153;28;20048;-74
2023/09/10 09:29:09;;;;;;;8.95;3.75;;;;;;;;;;5042029;28;20070;-75
2023/09/10 09:31:55;;;;;;;7.85;3.90;;;;;;;;;;5056994;28;20033;-75
2023/09/10 09:34:40;;;;;;;5.28;3.50;;;;;;;;;;5056715;28;20049;-75
2023/09/10 09:37:26;;;;;;;10.07;3.63;;;;;;;;;;5063288;28;20041;-75
2023/09/10 09:40:11;;;;;;;9.07;3.47;;;;;;;;;;5056563;28;20045;-75
2023/09/10 09:42:57;;;;;;;10.52;3.67;;;;;;;;;;5056380;28;20049;-75
2023/09/10 09:45:44;;;;;;;6.22;3.60;;;;;;;;;;5056820;28;20044;-75
2023/09/10 09:48:30;;;;;;;6.47;3.20;;;;;;;;;;5056595;28;20041;-75
2023/09/10 09:51:15;;;;;;;6.10;3.50;;;;;;;;;;5057032;28;20386;-75
2023/09/10 09:54:01;;;;;;;5.70;2.90;;;;;;;;;;5063410;28;20036;-74
2023/09/10 09:56:47;;;;;;;5.75;2.72;;;;;;;;;;5056194;28;20041;-75
2023/09/10 09:59:36;;;;;;;5.75;3.63;;;;;;;;;;5063021;28;20045;-74
2023/09/10 10:02:21;;;;;;;6.32;2.92;;;;;;;;;;5056503;28;20053;-75
2023/09/10 10:05:08;;;;;;;16.50;3.15;;;;;;;;;;5056102;28;20033;-76
2023/09/10 10:07:54;;;;;;;7.18;2.90;;;;;;;;;;5055918;28;20370;-75
2023/09/10 10:10:46;;;;;;;5.32;2.60;;;;;;;;;;5056003;28;20033;-75
2023/09/10 10:13:33;;;;;;;8.77;2.58;;;;;;;;;;5055596;28;20402;-74
2023/09/10 10:16:19;;;;;;;6.18;2.58;;;;;;;;;;5055741;28;20041;-75
2023/09/10 10:19:06;;;;;;;4.95;3.00;;;;;;;;;;5055628;28;20049;-73
2023/09/10 10:21:55;;;;;;;10.23;3.22;;;;;;;;;;5055880;28;20045;-73
2023/09/10 10:24:41;;;;;;;9.27;3.08;;;;;;;;;;5055713;28;20049;-75
2023/09/10 10:27:28;;;;;;;5.80;2.85;;;;;;;;;;5055534;28;20495;-76
2023/09/10 10:30:13;;;;;;;10.60;2.90;;;;;;;;;;5055813;28;20045;-73
2023/09/10 10:33:01;;;;;;;8.63;4.65;;;;;;;;;;5055092;28;20041;-73
2023/09/10 10:36:21;;;;;;;10.13;2.80;;;;;;;;;;5055743;28;20049;-74
2023/09/10 10:39:09;;;;;;;7.82;2.85;;;;;;;;;;5055049;28;20037;-73
2023/09/10 10:41:56;;;;;;;5.65;2.42;;;;;;;;;;5055444;28;20056;-74
2023/09/10 10:44:42;;;;;;;5.22;2.28;;;;;;;;;;5062040;28;20044;-74
2023/09/10 10:47:31;;;;;;;7.93;2.40;;;;;;;;;;5047426;28;20037;-74
2023/09/10 10:50:25;;;;;;;5.68;2.55;;;;;;;;;;5062549;28;20439;-74
2023/09/10 10:53:18;;;;;;;5.80;2.58;;;;;;;;;;5054977;28;20045;-75
2023/09/10 10:56:04;;;;;;;6.60;2.70;;;;;;;;;;5054959;28;20390;-75
2023/09/10 10:58:50;;;;;;;7.78;2.72;;;;;;;;;;5061738;28;20044;-73
2023/09/10 11:01:35;;;;;;;5.60;2.53;;;;;;;;;;5056022;28;20053;-73
2023/09/10 11:04:25;;;;;;;6.18;2.42;;;;;;;;;;5054986;28;20037;-74
2023/09/10 11:07:18;;;;;;;5.40;2.50;;;;;;;;;;5054931;28;20041;-73
2023/09/10 11:10:25;;;;;;;5.72;2.40;;;;;;;;;;5055675;28;20053;-73
2023/09/10 11:13:12;;;;;;;6.60;2.53;;;;;;;;;;5054392;28;20049;-74
2023/09/10 11:16:04;;;;;;;4.95;2.38;;;;;;;;;;5054633;28;20045;-73
2023/09/10 11:18:51;;;;;;;5.38;2.10;;;;;;;;;;5054992;28;20048;-74
2023/09/10 11:21:55;;;;;;;6.88;2.40;;;;;;;;;;5054692;28;20037;-75
2023/09/10 11:24:40;;;;;;;6.60;2.42;;;;;;;;;;5055027;28;20045;-76
2023/09/10 11:27:30;;;;;;;3.33;2.30;;;;;;;;;;5054272;28;20045;-75
2023/09/10 11:30:20;;;;;;;3.58;2.20;;;;;;;;;;5054583;28;20045;-75
2023/09/10 11:33:29;;;;;;;3.60;2.10;;;;;;;;;;5060955;28;20041;-74
2023/09/10 11:36:16;;;;;;;4.85;2.47;;;;;;;;;;5054437;28;20057;-73
2023/09/10 11:39:00;;;;;;;3.10;2.30;;;;;;;;;;5054660;28;20041;-74
2023/09/10 11:41:51;;;;;;;7.38;2.45;;;;;;;;;;5054194;28;20478;-74
2023/09/10 11:44:37;;;;;;;4.70;2.38;;;;;;;;;;5054227;28;20045;-73
2023/09/10 11:47:26;;;;;;;4.18;2.42;;;;;;;;;;5054038;28;20060;-75
2023/09/10 11:50:14;;;;;;;15.82;3.00;;;;;;;;;;5051453;28;20064;-74
2023/09/10 11:52:59;;;;;;;4.75;2.67;;;;;;;;;;5052349;28;20486;-75
2023/09/10 11:55:46;;;;;;;5.35;2.85;;;;;;;;;;5052017;28;20045;-75
2023/09/10 11:58:32;;;;;;;3.35;2.40;;;;;;;;;;5053912;28;20036;-75
2023/09/10 12:01:17;;;;;;;5.35;2.60;;;;;;;;;;5053777;28;20053;-74
2023/09/10 12:04:03;;;;;;;4.28;2.10;;;;;;;;;;5058847;28;20048;-76
2023/09/10 12:06:48;;;;;;;5.22;2.30;;;;;;;;;;5052070;28;20049;-76
2023/09/10 12:09:34;;;;;;;6.43;2.33;;;;;;;;;;5058708;28;20045;-76
2023/09/10 12:12:24;;;;;;;5.55;2.65;;;;;;;;;;5051580;28;20037;-76
2023/09/10 12:15:10;;;;;;;5.20;2.30;;;;;;;;;;5052248;28;20479;-75
2023/09/10 12:17:55;;;;;;;6.97;2.20;;;;;;;;;;5051658;28;20044;-75
2023/09/10 12:20:40;;;;;;;5.85;2.30;;;;;;;;;;5058121;28;20057;-75
2023/09/10 12:23:27;;;;;;;9.73;2.40;;;;;;;;;;5051803;28;20491;-75
2023/09/10 12:26:13;;;;;;;3.42;2.30;;;;;;;;;;5051324;28;20053;-75
2023/09/10 12:28:58;;;;;;;4.80;2.08;;;;;;;;;;5051627;28;20482;-75
2023/09/10 12:31:44;;;;;;;7.85;2.40;;;;;;;;;;5058398;28;20048;-74
2023/09/10 12:34:29;;;;;;;3.35;2.40;;;;;;;;;;5043486;28;20044;-76
2023/09/10 12:37:15;;;;;;;6.88;2.60;;;;;;;;;;5050889;28;20486;-75
2023/09/10 12:40:02;;;;;;;4.05;2.40;;;;;;;;;;5058853;28;20454;-74
2023/09/10 12:42:48;;;;;;;7.32;2.22;;;;;;;;;;5051758;28;20041;-75
2023/09/10 12:45:34;;;;;;;2.88;2.30;;;;;;;;;;5052140;28;20037;-74
2023/09/10 12:48:19;;;;;;;5.88;2.30;;;;;;;;;;5051617;28;20049;-75
2023/09/10 12:51:05;;;;;;;5.03;2.20;;;;;;;;;;5057675;28;20041;-75
2023/09/10 12:53:51;;;;;;;5.18;2.47;;;;;;;;;;5042078;28;20049;-76
2023/09/10 12:56:41;;;;;;;6.00;2.58;;;;;;;;;;5058061;28;20049;-76
2023/09/10 12:59:25;;;;;;;4.35;2.60;;;;;;;;;;5051341;28;20052;-76
2023/09/10 13:02:11;;;;;;;3.95;2.53;;;;;;;;;;5051354;28;20041;-76
2023/09/10 13:04:57;;;;;;;5.47;2.42;;;;;;;;;;5057340;28;20041;-74
2023/09/10 13:07:44;;;;;;;3.25;2.25;;;;;;;;;;5051002;28;20041;-72
2023/09/10 13:10:30;;;;;;;5.22;2.60;;;;;;;;;;5050087;28;20048;-73
2023/09/10 13:13:15;;;;;;;7.15;2.65;;;;;;;;;;5050650;28;20049;-74
2023/09/10 13:16:01;;;;;;;5.95;2.47;;;;;;;;;;5051242;28;20048;-74
2023/09/10 13:18:46;;;;;;;5.15;2.65;;;;;;;;;;5051179;28;20049;-74
2023/09/10 13:21:32;;;;;;;5.60;2.60;;;;;;;;;;5042799;28;20150;-74
2023/09/10 13:24:18;;;;;;;9.82;2.90;;;;;;;;;;5057777;28;20041;-75
2023/09/10 13:27:04;;;;;;;4.68;2.70;;;;;;;;;;5050896;28;20049;-75
2023/09/10 13:29:49;;;;;;;9.15;2.30;;;;;;;;;;5051274;28;20041;-76
2023/09/10 13:32:34;;;;;;;5.35;2.70;;;;;;;;;;5051122;28;20045;-73
2023/09/10 13:35:22;;;;;;;6.63;2.55;;;;;;;;;;5051233;28;20817;-73
2023/09/10 13:38:08;;;;;;;4.47;2.30;;;;;;;;;;5051159;28;20040;-75
2023/09/10 13:40:56;;;;;;;4.70;2.30;;;;;;;;;;5050877;28;20045;-75
2023/09/10 13:43:40;;;;;;;6.63;3.00;;;;;;;;;;5051075;28;20089;-75
2023/09/10 13:46:25;;;;;;;6.78;2.75;;;;;;;;;;5050893;28;20045;-75
2023/09/10 13:49:12;;;;;;;3.45;2.60;;;;;;;;;;5052268;28;20418;-75
2023/09/10 13:51:58;;;;;;;4.72;2.60;;;;;;;;;;5054513;28;20410;-75
2023/09/10 13:54:43;;;;;;;6.40;2.78;;;;;;;;;;5054442;28;20045;-75
2023/09/10 13:57:29;;;;;;;4.30;2.35;;;;;;;;;;5054625;28;20037;-74
2023/09/10 14:00:14;;;;;;;3.97;2.30;;;;;;;;;;5039707;28;20041;-74
2023/09/10 14:03:00;;;;;;;6.72;2.60;;;;;;;;;;5054466;28;20045;-74
2023/09/10 14:05:45;;;;;;;4.05;2.45;;;;;;;;;;5054178;28;20037;-75
2023/09/10 14:08:30;;;;;;;4.22;2.72;;;;;;;;;;5054193;28;20049;-72
2023/09/10 14:11:16;;;;;;;4.22;2.55;;;;;;;;;;5054309;28;20040;-74
2023/09/10 14:14:02;;;;;;;4.97;2.47;;;;;;;;;;5053838;28;20049;-74
2023/09/10 14:16:47;;;;;;;5.50;2.53;;;;;;;;;;5060695;28;20057;-72
2023/09/10 14:19:36;;;;;;;3.60;2.80;;;;;;;;;;5060625;28;20048;-74
2023/09/10 14:22:52;;;;;;;9.63;2.88;;;;;;;;;;5054526;28;20045;-78
2023/09/10 14:25:39;;;;;;;3.53;2.30;;;;;;;;;;5054174;28;20052;-73
2023/09/10 14:28:31;;;;;;;3.65;2.25;;;;;;;;;;5039573;28;20041;-77
2023/09/10 14:31:17;;;;;;;5.60;2.33;;;;;;;;;;5054053;28;20045;-75
2023/09/10 14:34:02;;;;;;;6.85;3.58;;;;;;;;;;5055280;28;20049;-75
2023/09/10 14:36:48;;;;;;;9.48;2.50;;;;;;;;;;5056668;28;20045;-78
2023/09/10 14:39:37;;;;;;;4.63;2.50;;;;;;;;;;5062181;28;20048;-77
2023/09/10 14:42:38;;;;;;;7.00;2.50;;;;;;;;;;5055490;28;20056;-76
2023/09/10 14:45:24;;;;;;;5.85;2.60;;;;;;;;;;5053698;28;20053;-76
2023/09/10 14:48:09;;;;;;;9.40;2.58;;;;;;;;;;5038729;28;20493;-75
2023/09/10 14:50:55;;;;;;;7.85;2.55;;;;;;;;;;5053509;28;20044;-76
2023/09/10 14:53:40;;;;;;;7.63;2.72;;;;;;;;;;5053141;28;20057;-76
2023/09/10 14:56:26;;;;;;;10.13;2.83;;;;;;;;;;5059725;28;20414;-76
2023/09/10 14:59:11;;;;;;;6.43;2.78;;;;;;;;;;5057501;28;20048;-75
2023/09/10 15:01:57;;;;;;;5.45;2.92;;;;;;;;;;5051882;28;20079;-75
2023/09/10 15:04:43;;;;;;;8.73;3.05;;;;;;;;;;5052773;28;20394;-74
2023/09/10 15:07:28;;;;;;;4.22;2.70;;;;;;;;;;5052085;28;20045;-74
2023/09/10 15:10:14;;;;;;;4.97;2.60;;;;;;;;;;5052718;28;20064;-73
2023/09/10 15:13:00;;;;;;;4.45;2.58;;;;;;;;;;5052256;28;20048;-74
2023/09/10 15:15:46;;;;;;;6.63;2.50;;;;;;;;;;5052905;28;20045;-74
2023/09/10 15:18:31;;;;;;;7.00;2.08;;;;;;;;;;5053160;28;20048;-74
2023/09/10 15:21:30;;;;;;;;;;;;;;;;;;;;;
2023/09/10 15:24:23;;;;;;;14.10;2.80;;;;;;;;;;5053145;28;20407;-73
2023/09/10 15:27:08;;;;;;;6.78;2.58;;;;;;;;;;5053340;28;20053;-75
2023/09/10 15:29:55;;;;;;;6.05;2.28;;;;;;;;;;5052800;28;20049;-74
2023/09/10 15:32:40;;;;;;;5.13;2.20;;;;;;;;;;5052405;28;20402;-73
2023/09/10 15:35:26;;;;;;;5.38;2.60;;;;;;;;;;5051940;28;20041;-74
2023/09/10 15:38:12;;;;;;;6.85;2.70;;;;;;;;;;5052423;28;20398;-73
2023/09/10 15:40:58;;;;;;;7.18;2.65;;;;;;;;;;5052105;28;20041;-73
2023/09/10 15:43:44;;;;;;;3.70;2.58;;;;;;;;;;5043029;28;20478;-73
2023/09/10 15:46:29;;;;;;;9.70;2.80;;;;;;;;;;5050469;28;20045;-73
2023/09/10 15:49:15;;;;;;;4.38;2.38;;;;;;;;;;5051520;28;20045;-74
2023/09/10 15:52:00;;;;;;;12.23;3.00;;;;;;;;;;5051297;28;20057;-74
2023/09/10 15:54:46;;;;;;;6.00;2.15;;;;;;;;;;5058406;28;20045;-74
2023/09/10 15:57:32;;;;;;;8.70;2.40;;;;;;;;;;5036816;28;20048;-74
2023/09/10 16:00:17;;;;;;;5.63;2.40;;;;;;;;;;5051260;28;20395;-73
2023/09/10 16:03:03;;;;;;;6.68;2.30;;;;;;;;;;5050656;28;20551;-73
2023/09/10 16:05:48;;;;;;;4.80;2.20;;;;;;;;;;5051679;28;20049;-72
2023/09/10 16:08:34;;;;;;;6.75;2.60;;;;;;;;;;5051581;28;20394;-75
2023/09/10 16:11:20;;;;;;;2.97;2.22;;;;;;;;;;5051553;28;20057;-74
2023/09/10 16:14:05;;;;;;;3.42;2.17;;;;;;;;;;5051146;28;20052;-74
2023/09/10 16:16:51;;;;;;;7.22;2.40;;;;;;;;;;5043452;28;20045;-74
2023/09/10 16:19:35;;;;;;;7.90;2.67;;;;;;;;;;5051758;28;20049;-74
2023/09/10 16:22:29;;;;;;;6.75;2.70;;;;;;;;;;5050922;28;20044;-74
2023/09/10 16:25:15;;;;;;;5.13;2.67;;;;;;;;;;5051560;28;20041;-73
2023/09/10 16:28:03;;;;;;;6.38;2.90;;;;;;;;;;5051283;28;20048;-72
2023/09/10 16:30:48;;;;;;;4.75;2.50;;;;;;;;;;5050665;28;20045;-73
2023/09/10 16:33:33;;;;;;;7.20;2.58;;;;;;;;;;5051266;28;20053;-74
2023/09/10 16:36:21;;;;;;;5.07;2.88;;;;;;;;;;5051465;28;20053;-74
2023/09/10 16:39:07;;;;;;;6.50;2.45;;;;;;;;;;5036119;28;20049;-74
2023/09/10 16:41:52;;;;;;;5.70;2.70;;;;;;;;;;5050633;28;20049;-72